createdAt,value
2023-02-23T00:00:04.962Z,235.81
2023-02-23T00:00:14.965Z,235.58
2023-02-23T00:00:24.923Z,235.99
2023-02-23T00:00:34.948Z,237.08
2023-02-23T00:00:44.939Z,237.92
2023-02-23T00:00:54.935Z,238.24
2023-02-23T00:01:04.978Z,238.31
2023-02-23T00:01:14.960Z,237.68
2023-02-23T00:01:24.957Z,237.04
2023-02-23T00:01:34.990Z,236.22
2023-02-23T00:01:44.980Z,235.60
2023-02-23T00:01:55.014Z,235.35
2023-02-23T00:02:05.018Z,234.80
2023-02-23T00:02:15.043Z,234.65
2023-02-23T00:02:25.036Z,234.12
2023-02-23T00:02:35.065Z,234.11
2023-02-23T00:02:45.125Z,234.20
2023-02-23T00:02:55.187Z,233.79
2023-02-23T00:03:05.182Z,233.61
2023-02-23T00:03:15.088Z,233.73
2023-02-23T00:03:25.099Z,233.44
2023-02-23T00:03:35.153Z,233.56
2023-02-23T00:03:45.143Z,233.93
2023-02-23T00:03:55.103Z,233.85
2023-02-23T00:04:05.122Z,234.13
2023-02-23T00:04:15.097Z,234.48
2023-02-23T00:04:25.118Z,234.50
2023-02-23T00:04:35.126Z,234.58
2023-02-23T00:04:45.132Z,234.54
2023-02-23T00:04:55.188Z,234.75
2023-02-23T00:05:05.144Z,234.98
2023-02-23T00:05:15.155Z,234.91
2023-02-23T00:05:25.161Z,234.79
2023-02-23T00:05:35.203Z,234.82
2023-02-23T00:05:45.204Z,234.56
2023-02-23T00:05:55.180Z,234.40
2023-02-23T00:06:05.223Z,234.30
2023-02-23T00:06:15.218Z,234.30
2023-02-23T00:06:25.259Z,234.03
2023-02-23T00:06:35.278Z,233.90
2023-02-23T00:06:45.341Z,233.76
2023-02-23T00:06:55.377Z,233.87
2023-02-23T00:07:05.268Z,233.59
2023-02-23T00:07:15.245Z,233.73
2023-02-23T00:07:25.268Z,233.50
2023-02-23T00:07:35.304Z,233.59
2023-02-23T00:07:45.310Z,233.59
2023-02-23T00:07:55.282Z,234.13
2023-02-23T00:08:05.319Z,234.30
2023-02-23T00:08:15.320Z,234.56
2023-02-23T00:08:25.330Z,234.38
2023-02-23T00:08:35.339Z,234.49
2023-02-23T00:08:45.339Z,234.43
2023-02-23T00:08:55.321Z,234.37
2023-02-23T00:09:05.353Z,234.11
2023-02-23T00:09:15.373Z,234.78
2023-02-23T00:09:25.357Z,235.05
2023-02-23T00:09:35.665Z,235.66
2023-02-23T00:09:45.376Z,235.77
2023-02-23T00:09:55.434Z,235.78
2023-02-23T00:10:05.384Z,235.74
2023-02-23T00:10:15.400Z,235.35
2023-02-23T00:10:25.393Z,235.08
2023-02-23T00:10:35.377Z,234.36
2023-02-23T00:10:45.374Z,234.18
2023-02-23T00:10:55.381Z,233.61
2023-02-23T00:11:05.380Z,233.14
2023-02-23T00:11:15.376Z,232.99
2023-02-23T00:11:25.387Z,232.75
2023-02-23T00:11:35.383Z,232.71
2023-02-23T00:11:45.373Z,232.43
2023-02-23T00:11:55.397Z,232.41
2023-02-23T00:12:05.374Z,232.21
2023-02-23T00:12:15.374Z,232.16
2023-02-23T00:12:25.392Z,232.31
2023-02-23T00:12:35.378Z,231.66
2023-02-23T00:12:45.385Z,231.97
2023-02-23T00:12:55.382Z,231.83
2023-02-23T00:13:05.366Z,231.97
2023-02-23T00:13:15.397Z,231.72
2023-02-23T00:13:25.373Z,231.76
2023-02-23T00:13:35.380Z,232.03
2023-02-23T00:13:45.381Z,232.23
2023-02-23T00:13:55.374Z,232.19
2023-02-23T00:14:05.370Z,232.04
2023-02-23T00:14:15.393Z,231.77
2023-02-23T00:14:25.376Z,231.88
2023-02-23T00:14:35.336Z,232.06
2023-02-23T00:14:45.345Z,232.22
2023-02-23T00:14:55.362Z,232.78
2023-02-23T00:15:05.443Z,233.04
2023-02-23T00:15:15.414Z,233.29
2023-02-23T00:15:25.395Z,233.29
2023-02-23T00:15:35.413Z,233.17
2023-02-23T00:15:45.418Z,233.35
2023-02-23T00:15:55.435Z,233.22
2023-02-23T00:16:05.464Z,232.65
2023-02-23T00:16:15.424Z,232.47
2023-02-23T00:16:25.496Z,232.29
2023-02-23T00:16:35.494Z,231.82
2023-02-23T00:16:45.608Z,231.68
2023-02-23T00:16:55.459Z,231.15
2023-02-23T00:17:05.480Z,230.83
2023-02-23T00:17:15.492Z,230.54
2023-02-23T00:17:25.470Z,230.34
2023-02-23T00:17:35.521Z,230.17
2023-02-23T00:17:45.539Z,230.08
2023-02-23T00:17:55.514Z,229.90
2023-02-23T00:18:05.544Z,229.85
2023-02-23T00:18:15.553Z,230.12
2023-02-23T00:18:25.531Z,230.46
2023-02-23T00:18:35.554Z,230.56
2023-02-23T00:18:45.636Z,230.79
2023-02-23T00:18:55.718Z,230.88
2023-02-23T00:19:05.606Z,231.12
2023-02-23T00:19:15.646Z,230.70
2023-02-23T00:19:25.589Z,231.07
2023-02-23T00:19:35.615Z,230.67
2023-02-23T00:19:45.621Z,230.67
2023-02-23T00:19:55.622Z,230.70
2023-02-23T00:20:05.676Z,230.76
2023-02-23T00:20:15.660Z,230.75
2023-02-23T00:20:25.635Z,231.05
2023-02-23T00:20:35.671Z,230.98
2023-02-23T00:20:45.667Z,230.93
2023-02-23T00:20:55.665Z,230.67
2023-02-23T00:21:05.691Z,230.50
2023-02-23T00:21:15.834Z,230.59
2023-02-23T00:21:25.666Z,230.63
2023-02-23T00:21:35.699Z,230.63
2023-02-23T00:21:45.717Z,230.96
2023-02-23T00:21:55.671Z,230.85
2023-02-23T00:22:05.671Z,230.87
2023-02-23T00:22:15.675Z,231.10
2023-02-23T00:22:25.673Z,231.28
2023-02-23T00:22:35.681Z,231.36
2023-02-23T00:22:45.674Z,231.08
2023-02-23T00:22:55.655Z,231.12
2023-02-23T00:23:05.697Z,231.41
2023-02-23T00:23:15.669Z,231.51
2023-02-23T00:23:25.679Z,231.92
2023-02-23T00:23:35.670Z,232.20
2023-02-23T00:23:45.671Z,232.29
2023-02-23T00:23:55.667Z,232.29
2023-02-23T00:24:05.687Z,232.43
2023-02-23T00:24:15.678Z,232.21
2023-02-23T00:24:25.672Z,232.23
2023-02-23T00:24:35.689Z,232.03
2023-02-23T00:24:45.667Z,232.08
2023-02-23T00:24:55.683Z,232.34
2023-02-23T00:25:05.688Z,232.22
2023-02-23T00:25:15.721Z,232.02
2023-02-23T00:25:25.709Z,231.79
2023-02-23T00:25:35.692Z,231.19
2023-02-23T00:25:45.700Z,231.04
2023-02-23T00:25:55.694Z,230.96
2023-02-23T00:26:05.680Z,230.72
2023-02-23T00:26:15.692Z,230.35
2023-02-23T00:26:25.675Z,230.18
2023-02-23T00:26:35.683Z,229.77
2023-02-23T00:26:45.657Z,229.60
2023-02-23T00:26:55.661Z,229.46
2023-02-23T00:27:05.696Z,229.58
2023-02-23T00:27:15.757Z,229.53
2023-02-23T00:27:25.700Z,229.61
2023-02-23T00:27:35.737Z,229.75
2023-02-23T00:27:45.729Z,229.31
2023-02-23T00:27:55.724Z,229.13
2023-02-23T00:28:05.735Z,229.01
2023-02-23T00:28:15.740Z,228.80
2023-02-23T00:28:25.730Z,229.03
2023-02-23T00:28:35.760Z,229.10
2023-02-23T00:28:45.779Z,228.82
2023-02-23T00:28:55.754Z,228.66
2023-02-23T00:29:05.803Z,228.93
2023-02-23T00:29:15.797Z,228.84
2023-02-23T00:29:25.794Z,228.87
2023-02-23T00:29:35.824Z,228.89
2023-02-23T00:29:45.821Z,229.33
2023-02-23T00:29:55.819Z,229.27
2023-02-23T00:30:05.824Z,229.34
2023-02-23T00:30:15.895Z,228.92
2023-02-23T00:30:25.848Z,229.02
2023-02-23T00:30:35.887Z,229.38
2023-02-23T00:30:45.918Z,229.95
2023-02-23T00:30:55.880Z,230.47
2023-02-23T00:31:05.902Z,230.27
2023-02-23T00:31:15.999Z,230.40
2023-02-23T00:31:25.978Z,229.88
2023-02-23T00:31:36.008Z,229.67
2023-02-23T00:31:45.984Z,229.40
2023-02-23T00:31:56.034Z,229.18
2023-02-23T00:32:06.072Z,229.52
2023-02-23T00:32:16.027Z,229.15
2023-02-23T00:32:25.996Z,229.18
2023-02-23T00:32:36.072Z,229.57
2023-02-23T00:32:46.031Z,229.77
2023-02-23T00:32:55.977Z,229.63
2023-02-23T00:33:06.001Z,229.31
2023-02-23T00:33:15.989Z,229.29
2023-02-23T00:33:25.983Z,228.93
2023-02-23T00:33:36.010Z,228.84
2023-02-23T00:33:46.018Z,228.91
2023-02-23T00:33:56.021Z,228.88
2023-02-23T00:34:06.039Z,229.08
2023-02-23T00:34:16.045Z,228.94
2023-02-23T00:34:26.039Z,228.96
2023-02-23T00:34:36.088Z,229.17
2023-02-23T00:34:46.080Z,229.11
2023-02-23T00:34:56.076Z,229.25
2023-02-23T00:35:06.101Z,229.49
2023-02-23T00:35:16.131Z,229.00
2023-02-23T00:35:26.102Z,228.93
2023-02-23T00:35:36.116Z,228.74
2023-02-23T00:35:46.108Z,228.65
2023-02-23T00:35:56.128Z,228.48
2023-02-23T00:36:06.123Z,228.58
2023-02-23T00:36:16.127Z,228.64
2023-02-23T00:36:26.138Z,228.71
2023-02-23T00:36:36.177Z,228.45
2023-02-23T00:36:46.172Z,228.80
2023-02-23T00:36:56.175Z,229.22
2023-02-23T00:37:06.207Z,229.62
2023-02-23T00:37:16.183Z,229.96
2023-02-23T00:37:26.202Z,230.41
2023-02-23T00:37:36.217Z,230.54
2023-02-23T00:37:46.212Z,230.40
2023-02-23T00:37:56.212Z,230.03
2023-02-23T00:38:06.242Z,229.75
2023-02-23T00:38:16.237Z,229.47
2023-02-23T00:38:26.250Z,229.92
2023-02-23T00:38:36.253Z,230.12
2023-02-23T00:38:46.270Z,230.46
2023-02-23T00:38:56.269Z,230.33
2023-02-23T00:39:06.293Z,230.07
2023-02-23T00:39:16.291Z,229.96
2023-02-23T00:39:26.301Z,229.94
2023-02-23T00:39:36.338Z,229.77
2023-02-23T00:39:46.320Z,229.82
2023-02-23T00:39:56.336Z,229.71
2023-02-23T00:40:06.347Z,228.99
2023-02-23T00:40:36.390Z,25.00
2023-02-23T00:40:46.387Z,25.00
2023-02-23T00:40:56.602Z,25.00
2023-02-23T00:41:06.605Z,25.00
2023-02-23T00:41:16.837Z,25.00
2023-02-23T00:41:26.729Z,25.00
2023-02-23T00:41:36.721Z,25.00
2023-02-23T00:41:46.723Z,25.00
2023-02-23T00:41:56.730Z,25.00
2023-02-23T00:42:06.743Z,25.00
2023-02-23T00:42:16.745Z,25.00
2023-02-23T00:42:26.745Z,25.00
2023-02-23T00:42:36.724Z,25.00
2023-02-23T00:42:46.733Z,25.00
2023-02-23T00:42:56.751Z,25.00
2023-02-23T00:43:06.730Z,25.00
2023-02-23T00:43:16.751Z,25.00
2023-02-23T00:43:26.734Z,25.00
2023-02-23T00:43:36.724Z,25.00
2023-02-23T00:43:46.764Z,25.00
2023-02-23T00:43:56.732Z,25.00
2023-02-23T00:44:06.759Z,25.00
2023-02-23T00:44:16.732Z,25.00
2023-02-23T00:44:26.728Z,25.00
2023-02-23T00:44:36.731Z,25.00
2023-02-23T00:44:46.734Z,25.00
2023-02-23T00:44:56.728Z,25.00
2023-02-23T00:45:06.762Z,25.00
2023-02-23T00:45:16.736Z,25.00
2023-02-23T00:45:26.723Z,25.00
2023-02-23T00:45:36.776Z,25.00
2023-02-23T00:45:46.787Z,25.16
2023-02-23T00:45:56.746Z,26.54
2023-02-23T00:46:06.825Z,25.00
2023-02-23T00:46:16.758Z,25.00
2023-02-23T00:46:26.725Z,25.00
2023-02-23T00:46:36.725Z,25.04
2023-02-23T00:46:46.715Z,25.00
2023-02-23T00:46:56.734Z,26.68
2023-02-23T00:47:06.700Z,26.53
2023-02-23T00:47:16.707Z,26.50
2023-02-23T00:47:26.759Z,25.71
2023-02-23T00:47:36.725Z,26.54
2023-02-23T00:47:46.721Z,27.02
2023-02-23T00:47:56.738Z,25.87
2023-02-23T00:48:06.774Z,25.40
2023-02-23T00:48:16.753Z,26.68
2023-02-23T00:48:26.811Z,27.87
2023-02-23T00:48:36.801Z,27.68
2023-02-23T00:48:46.792Z,27.44
2023-02-23T00:48:56.808Z,28.47
2023-02-23T00:49:06.806Z,29.86
2023-02-23T00:49:16.810Z,32.97
2023-02-23T00:49:26.840Z,40.50
2023-02-23T00:49:36.824Z,43.24
2023-02-23T00:49:46.853Z,47.06
2023-02-23T00:49:56.839Z,48.84
2023-02-23T00:50:06.839Z,48.37
2023-02-23T00:50:16.858Z,47.55
2023-02-23T00:50:26.879Z,47.04
2023-02-23T00:50:36.929Z,44.87
2023-02-23T00:50:46.895Z,42.61
2023-02-23T00:50:56.895Z,43.03
2023-02-23T00:51:06.894Z,43.80
2023-02-23T00:51:17.087Z,42.11
2023-02-23T00:51:26.937Z,38.87
2023-02-23T00:51:36.924Z,39.09
2023-02-23T00:51:46.943Z,38.28
2023-02-23T00:51:56.919Z,38.14
2023-02-23T00:52:06.928Z,37.40
2023-02-23T00:52:16.938Z,36.83
2023-02-23T00:52:26.933Z,36.44
2023-02-23T00:52:36.940Z,35.59
2023-02-23T00:52:46.943Z,36.87
2023-02-23T00:52:56.931Z,36.95
2023-02-23T00:53:06.951Z,37.47
2023-02-23T00:53:16.921Z,37.08
2023-02-23T00:53:26.950Z,37.57
2023-02-23T00:53:36.919Z,39.40
2023-02-23T00:53:46.945Z,39.91
2023-02-23T00:53:56.956Z,44.42
2023-02-23T00:54:06.929Z,46.75
2023-02-23T00:54:16.942Z,48.61
2023-02-23T00:54:26.925Z,48.78
2023-02-23T00:54:36.946Z,47.67
2023-02-23T00:54:46.955Z,47.29
2023-02-23T00:54:56.923Z,48.89
2023-02-23T00:55:06.957Z,47.36
2023-02-23T00:55:16.931Z,45.90
2023-02-23T00:55:26.921Z,46.17
2023-02-23T00:55:36.914Z,47.79
2023-02-23T00:55:47.054Z,49.85
2023-02-23T00:55:56.928Z,49.24
2023-02-23T00:56:06.935Z,45.99
2023-02-23T00:56:16.915Z,48.40
2023-02-23T00:56:26.908Z,47.06
2023-02-23T00:56:36.906Z,47.41
2023-02-23T00:56:46.929Z,49.82
2023-02-23T00:56:56.940Z,51.76
2023-02-23T00:57:06.937Z,54.07
2023-02-23T00:57:16.920Z,56.01
2023-02-23T00:57:26.977Z,57.14
2023-02-23T00:57:36.947Z,60.14
2023-02-23T00:57:47.019Z,58.27
2023-02-23T00:57:57.000Z,56.33
2023-02-23T00:58:06.998Z,54.30
2023-02-23T00:58:16.997Z,51.23
2023-02-23T00:58:26.999Z,49.75
2023-02-23T00:58:36.997Z,48.69
2023-02-23T00:58:47.015Z,47.94
2023-02-23T00:58:57.039Z,49.12
2023-02-23T00:59:07.019Z,48.74
2023-02-23T00:59:17.049Z,50.00
2023-02-23T00:59:27.070Z,51.19
2023-02-23T00:59:37.092Z,52.26
2023-02-23T00:59:47.061Z,52.54
2023-02-23T00:59:57.091Z,51.30
2023-02-23T01:00:07.095Z,48.86
2023-02-23T01:00:17.092Z,48.38
2023-02-23T01:00:27.118Z,44.47
2023-02-23T01:00:37.107Z,45.63
2023-02-23T01:00:47.147Z,46.81
2023-02-23T01:00:57.175Z,47.73
2023-02-23T01:01:07.146Z,47.04
2023-02-23T01:01:17.681Z,48.55
2023-02-23T01:01:27.173Z,52.80
2023-02-23T01:01:37.161Z,54.87
2023-02-23T01:01:47.227Z,54.20
2023-02-23T01:01:57.130Z,52.26
2023-02-23T01:02:07.173Z,51.33
2023-02-23T01:02:17.180Z,49.71
2023-02-23T01:02:27.197Z,48.78
2023-02-23T01:02:37.187Z,47.57
2023-02-23T01:02:47.142Z,47.45
2023-02-23T01:02:57.141Z,46.12
2023-02-23T01:03:07.142Z,46.80
2023-02-23T01:03:17.130Z,44.71
2023-02-23T01:03:27.131Z,44.15
2023-02-23T01:03:37.133Z,45.24
2023-02-23T01:03:47.114Z,46.71
2023-02-23T01:03:57.117Z,50.09
2023-02-23T01:04:07.135Z,51.98
2023-02-23T01:04:17.125Z,54.14
2023-02-23T01:04:27.149Z,54.61
2023-02-23T01:04:37.120Z,52.72
2023-02-23T01:04:47.132Z,50.93
2023-02-23T01:04:57.140Z,51.18
2023-02-23T01:05:07.131Z,48.66
2023-02-23T01:05:17.130Z,47.90
2023-02-23T01:05:27.116Z,47.49
2023-02-23T01:05:37.106Z,49.45
2023-02-23T01:05:47.116Z,51.27
2023-02-23T01:05:57.162Z,50.84
2023-02-23T01:06:07.111Z,49.85
2023-02-23T01:06:17.115Z,49.22
2023-02-23T01:06:27.113Z,47.98
2023-02-23T01:06:37.105Z,48.39
2023-02-23T01:06:47.111Z,48.78
2023-02-23T01:06:57.115Z,47.92
2023-02-23T01:07:07.142Z,48.81
2023-02-23T01:07:17.129Z,47.03
2023-02-23T01:07:27.114Z,48.35
2023-02-23T01:07:37.105Z,47.86
2023-02-23T01:07:47.102Z,47.86
2023-02-23T01:07:57.117Z,48.19
2023-02-23T01:08:07.112Z,47.43
2023-02-23T01:08:17.110Z,47.35
2023-02-23T01:08:27.094Z,48.01
2023-02-23T01:08:37.136Z,47.63
2023-02-23T01:08:47.102Z,49.71
2023-02-23T01:08:57.111Z,50.39
2023-02-23T01:09:07.112Z,52.52
2023-02-23T01:09:17.101Z,52.36
2023-02-23T01:09:27.101Z,52.18
2023-02-23T01:09:37.102Z,48.48
2023-02-23T01:09:47.106Z,45.12
2023-02-23T01:09:57.133Z,43.96
2023-02-23T01:10:07.119Z,43.35
2023-02-23T01:10:17.099Z,42.42
2023-02-23T01:10:27.098Z,42.80
2023-02-23T01:10:37.101Z,40.60
2023-02-23T01:10:47.090Z,39.72
2023-02-23T01:10:57.118Z,39.17
2023-02-23T01:11:07.123Z,39.24
2023-02-23T01:11:17.385Z,38.12
2023-02-23T01:11:27.096Z,38.79
2023-02-23T01:11:37.077Z,36.64
2023-02-23T01:11:47.177Z,37.44
2023-02-23T01:11:57.161Z,37.26
2023-02-23T01:12:07.084Z,38.53
2023-02-23T01:12:17.073Z,39.49
2023-02-23T01:12:27.084Z,40.93
2023-02-23T01:12:37.081Z,43.81
2023-02-23T01:12:47.091Z,45.55
2023-02-23T01:12:57.089Z,47.81
2023-02-23T01:13:07.093Z,48.34
2023-02-23T01:13:17.093Z,50.05
2023-02-23T01:13:27.083Z,51.85
2023-02-23T01:13:37.090Z,51.91
2023-02-23T01:13:47.110Z,52.49
2023-02-23T01:13:57.095Z,50.48
2023-02-23T01:14:07.079Z,47.58
2023-02-23T01:14:17.090Z,45.64
2023-02-23T01:14:27.090Z,42.20
2023-02-23T01:14:37.088Z,40.56
2023-02-23T01:14:47.092Z,39.31
2023-02-23T01:14:57.089Z,38.82
2023-02-23T01:15:07.103Z,36.96
2023-02-23T01:15:17.077Z,36.95
2023-02-23T01:15:27.120Z,37.61
2023-02-23T01:15:37.123Z,36.45
2023-02-23T01:15:47.087Z,34.62
2023-02-23T01:15:57.119Z,33.71
2023-02-23T01:16:07.061Z,34.24
2023-02-23T01:16:17.129Z,36.09
2023-02-23T01:16:27.063Z,37.69
2023-02-23T01:16:37.058Z,37.86
2023-02-23T01:16:47.065Z,39.65
2023-02-23T01:16:57.065Z,40.03
2023-02-23T01:17:07.084Z,38.92
2023-02-23T01:17:17.067Z,37.88
2023-02-23T01:17:27.072Z,36.32
2023-02-23T01:17:37.075Z,34.14
2023-02-23T01:17:47.077Z,33.15
2023-02-23T01:17:57.070Z,33.88
2023-02-23T01:18:07.068Z,35.42
2023-02-23T01:18:17.063Z,35.33
2023-02-23T01:18:27.056Z,38.20
2023-02-23T01:18:37.085Z,40.06
2023-02-23T01:18:47.105Z,42.18
2023-02-23T01:18:57.090Z,45.07
2023-02-23T01:19:07.150Z,46.48
2023-02-23T01:19:17.117Z,46.38
2023-02-23T01:19:27.144Z,47.40
2023-02-23T01:19:37.135Z,47.07
2023-02-23T01:19:47.138Z,44.88
2023-02-23T01:19:57.131Z,45.60
2023-02-23T01:20:07.180Z,47.16
2023-02-23T01:20:17.151Z,45.03
2023-02-23T01:20:27.541Z,44.96
2023-02-23T01:20:37.269Z,44.79
2023-02-23T01:20:47.279Z,44.61
2023-02-23T01:20:57.268Z,45.74
2023-02-23T01:21:07.255Z,44.89
2023-02-23T01:21:17.629Z,43.40
2023-02-23T01:21:27.271Z,41.82
2023-02-23T01:21:37.252Z,41.39
2023-02-23T01:21:47.259Z,42.19
2023-02-23T01:21:57.256Z,41.08
2023-02-23T01:22:07.252Z,40.91
2023-02-23T01:22:17.287Z,41.38
2023-02-23T01:22:27.243Z,43.10
2023-02-23T01:22:37.272Z,43.43
2023-02-23T01:22:47.289Z,44.32
2023-02-23T01:22:57.243Z,46.23
2023-02-23T01:23:07.256Z,48.20
2023-02-23T01:23:17.247Z,49.91
2023-02-23T01:23:27.245Z,53.03
2023-02-23T01:23:37.240Z,52.47
2023-02-23T01:23:47.238Z,50.54
2023-02-23T01:23:57.247Z,50.92
2023-02-23T01:24:07.243Z,50.55
2023-02-23T01:24:17.232Z,47.72
2023-02-23T01:24:27.248Z,45.85
2023-02-23T01:24:37.243Z,44.23
2023-02-23T01:24:47.251Z,44.28
2023-02-23T01:24:57.233Z,42.82
2023-02-23T01:25:07.243Z,43.34
2023-02-23T01:25:17.258Z,44.50
2023-02-23T01:25:27.245Z,43.05
2023-02-23T01:25:37.242Z,43.55
2023-02-23T01:25:47.230Z,43.44
2023-02-23T01:25:57.242Z,44.01
2023-02-23T01:26:07.252Z,44.00
2023-02-23T01:26:17.255Z,44.58
2023-02-23T01:26:27.296Z,42.10
2023-02-23T01:26:37.228Z,43.10
2023-02-23T01:26:47.268Z,42.04
2023-02-23T01:26:57.237Z,41.94
2023-02-23T01:27:07.271Z,41.39
2023-02-23T01:27:17.252Z,40.09
2023-02-23T01:27:27.246Z,40.67
2023-02-23T01:27:37.282Z,42.25
2023-02-23T01:27:47.259Z,42.08
2023-02-23T01:27:57.289Z,42.88
2023-02-23T01:28:07.305Z,44.92
2023-02-23T01:28:17.332Z,46.50
2023-02-23T01:28:27.341Z,47.39
2023-02-23T01:28:37.331Z,45.12
2023-02-23T01:28:47.324Z,44.45
2023-02-23T01:28:57.342Z,43.65
2023-02-23T01:29:07.346Z,42.24
2023-02-23T01:29:17.364Z,39.41
2023-02-23T01:29:27.336Z,37.27
2023-02-23T01:29:37.396Z,37.64
2023-02-23T01:29:47.400Z,38.64
2023-02-23T01:29:57.394Z,37.77
2023-02-23T01:30:07.409Z,37.63
2023-02-23T01:30:17.421Z,36.92
2023-02-23T01:30:27.428Z,38.25
2023-02-23T01:30:37.531Z,36.14
2023-02-23T01:30:47.610Z,34.98
2023-02-23T01:30:57.535Z,36.23
2023-02-23T01:31:07.547Z,38.60
2023-02-23T01:31:17.920Z,37.02
2023-02-23T01:31:27.623Z,36.21
2023-02-23T01:31:37.595Z,35.53
2023-02-23T01:31:47.641Z,34.03
2023-02-23T01:31:57.517Z,33.90
2023-02-23T01:32:07.533Z,33.13
2023-02-23T01:32:17.547Z,33.37
2023-02-23T01:32:27.467Z,35.64
2023-02-23T01:32:37.484Z,37.98
2023-02-23T01:32:47.454Z,40.95
2023-02-23T01:32:57.441Z,42.52
2023-02-23T01:33:07.475Z,44.82
2023-02-23T01:33:17.455Z,44.39
2023-02-23T01:33:27.472Z,45.80
2023-02-23T01:33:37.480Z,46.52
2023-02-23T01:33:47.475Z,45.43
2023-02-23T01:33:57.493Z,45.15
2023-02-23T01:34:07.513Z,44.21
2023-02-23T01:34:17.497Z,43.17
2023-02-23T01:34:27.496Z,39.32
2023-02-23T01:34:37.538Z,39.38
2023-02-23T01:34:47.506Z,37.70
2023-02-23T01:34:57.538Z,37.33
2023-02-23T01:35:07.560Z,37.38
2023-02-23T01:35:17.569Z,36.69
2023-02-23T01:35:27.585Z,35.98
2023-02-23T01:35:37.577Z,35.60
2023-02-23T01:35:47.572Z,35.95
2023-02-23T01:35:57.590Z,35.54
2023-02-23T01:36:07.593Z,34.44
2023-02-23T01:36:17.606Z,35.23
2023-02-23T01:36:27.655Z,38.03
2023-02-23T01:36:37.610Z,39.01
2023-02-23T01:36:47.626Z,40.27
2023-02-23T01:36:57.630Z,41.90
2023-02-23T01:37:07.666Z,41.90
2023-02-23T01:37:17.651Z,42.32
2023-02-23T01:37:27.662Z,41.94
2023-02-23T01:37:37.685Z,41.87
2023-02-23T01:37:47.685Z,44.03
2023-02-23T01:37:57.686Z,46.13
2023-02-23T01:38:07.727Z,46.38
2023-02-23T01:38:17.695Z,46.13
2023-02-23T01:38:27.728Z,45.92
2023-02-23T01:38:37.750Z,46.96
2023-02-23T01:38:47.713Z,46.85
2023-02-23T01:38:57.745Z,47.96
2023-02-23T01:39:07.816Z,48.36
2023-02-23T01:39:17.817Z,50.27
2023-02-23T01:39:27.771Z,50.18
2023-02-23T01:39:37.782Z,47.62
2023-02-23T01:39:47.782Z,46.50
2023-02-23T01:39:57.770Z,46.88
2023-02-23T01:40:07.817Z,42.97
2023-02-23T01:40:17.814Z,43.29
2023-02-23T01:40:27.817Z,42.60
2023-02-23T01:40:37.848Z,43.49
2023-02-23T01:40:47.865Z,44.11
2023-02-23T01:40:57.820Z,44.49
2023-02-23T01:41:07.869Z,44.89
2023-02-23T01:41:18.258Z,45.34
2023-02-23T01:41:27.893Z,46.23
2023-02-23T01:41:37.854Z,45.66
2023-02-23T01:41:47.870Z,44.68
2023-02-23T01:41:57.849Z,44.35
2023-02-23T01:42:07.864Z,43.16
2023-02-23T01:42:17.872Z,44.47
2023-02-23T01:42:27.855Z,43.93
2023-02-23T01:42:37.861Z,43.26
2023-02-23T01:42:47.876Z,42.75
2023-02-23T01:42:57.858Z,41.87
2023-02-23T01:43:07.869Z,39.90
2023-02-23T01:43:17.866Z,42.26
2023-02-23T01:43:27.856Z,41.23
2023-02-23T01:43:37.847Z,41.72
2023-02-23T01:43:47.862Z,42.12
2023-02-23T01:43:57.855Z,41.11
2023-02-23T01:44:07.891Z,41.65
2023-02-23T01:44:17.864Z,43.20
2023-02-23T01:44:27.839Z,42.85
2023-02-23T01:44:37.872Z,41.46
2023-02-23T01:44:47.843Z,42.35
2023-02-23T01:44:57.860Z,40.62
2023-02-23T01:45:07.828Z,39.87
2023-02-23T01:45:17.844Z,40.61
2023-02-23T01:45:27.849Z,39.54
2023-02-23T01:45:37.853Z,43.23
2023-02-23T01:45:47.858Z,45.02
2023-02-23T01:45:57.930Z,43.02
2023-02-23T01:46:07.877Z,42.77
2023-02-23T01:46:17.890Z,44.41
2023-02-23T01:46:27.865Z,46.95
2023-02-23T01:46:37.917Z,44.27
2023-02-23T01:46:47.869Z,42.51
2023-02-23T01:46:57.850Z,43.73
2023-02-23T01:47:07.899Z,42.75
2023-02-23T01:47:17.884Z,42.59
2023-02-23T01:47:27.914Z,40.54
2023-02-23T01:47:37.909Z,38.96
2023-02-23T01:47:47.933Z,37.82
2023-02-23T01:47:57.907Z,38.78
2023-02-23T01:48:07.937Z,37.73
2023-02-23T01:48:17.933Z,37.27
2023-02-23T01:48:27.925Z,38.96
2023-02-23T01:48:37.970Z,38.08
2023-02-23T01:48:47.952Z,38.80
2023-02-23T01:48:57.953Z,38.26
2023-02-23T01:49:07.999Z,37.55
2023-02-23T01:49:17.991Z,38.05
2023-02-23T01:49:28.004Z,36.68
2023-02-23T01:49:37.997Z,35.48
2023-02-23T01:49:48.009Z,38.02
2023-02-23T01:49:57.996Z,39.31
2023-02-23T01:50:08.024Z,41.83
2023-02-23T01:50:18.018Z,43.14
2023-02-23T01:50:28.016Z,42.94
2023-02-23T01:50:38.062Z,43.68
2023-02-23T01:50:48.049Z,45.37
2023-02-23T01:50:58.054Z,47.12
2023-02-23T01:51:08.091Z,44.90
2023-02-23T01:51:18.488Z,45.43
2023-02-23T01:51:28.078Z,45.40
2023-02-23T01:51:38.143Z,44.68
2023-02-23T01:51:48.087Z,45.40
2023-02-23T01:51:58.088Z,45.59
2023-02-23T01:52:08.104Z,44.50
2023-02-23T01:52:18.095Z,43.16
2023-02-23T01:52:28.070Z,43.69
2023-02-23T01:52:38.097Z,42.23
2023-02-23T01:52:48.092Z,43.68
2023-02-23T01:52:58.084Z,43.56
2023-02-23T01:53:08.088Z,44.17
2023-02-23T01:53:18.121Z,43.69
2023-02-23T01:53:28.108Z,44.51
2023-02-23T01:53:38.102Z,42.69
2023-02-23T01:53:48.080Z,43.17
2023-02-23T01:53:58.054Z,45.03
2023-02-23T01:54:08.054Z,46.48
2023-02-23T01:54:18.071Z,47.87
2023-02-23T01:54:28.075Z,48.58
2023-02-23T01:54:38.071Z,47.47
2023-02-23T01:54:48.089Z,47.20
2023-02-23T01:54:58.079Z,47.07
2023-02-23T01:55:08.067Z,45.29
2023-02-23T01:55:18.071Z,44.99
2023-02-23T01:55:28.054Z,44.53
2023-02-23T01:55:38.083Z,44.41
2023-02-23T01:55:48.067Z,45.60
2023-02-23T01:55:58.068Z,46.36
2023-02-23T01:56:08.082Z,45.53
2023-02-23T01:56:18.070Z,43.58
2023-02-23T01:56:28.047Z,43.31
2023-02-23T01:56:38.087Z,42.53
2023-02-23T01:56:48.134Z,45.29
2023-02-23T01:56:58.430Z,47.96
2023-02-23T01:57:08.319Z,53.51
2023-02-23T01:57:18.327Z,54.38
2023-02-23T01:57:28.326Z,54.09
2023-02-23T01:57:38.318Z,51.64
2023-02-23T01:57:48.324Z,52.05
2023-02-23T01:57:58.340Z,51.18
2023-02-23T01:58:08.324Z,48.80
2023-02-23T01:58:18.318Z,47.82
2023-02-23T01:58:28.328Z,46.95
2023-02-23T01:58:38.323Z,47.07
2023-02-23T01:58:48.319Z,43.52
2023-02-23T01:58:58.311Z,44.13
2023-02-23T01:59:08.328Z,46.47
2023-02-23T01:59:18.327Z,47.34
2023-02-23T01:59:28.326Z,48.19
2023-02-23T01:59:38.318Z,49.96
2023-02-23T01:59:48.328Z,52.32
2023-02-23T01:59:58.317Z,51.46
2023-02-23T02:00:08.316Z,51.00
2023-02-23T02:00:18.310Z,51.42
2023-02-23T02:00:28.318Z,50.09
2023-02-23T02:00:38.302Z,48.01
2023-02-23T02:00:48.328Z,47.34
2023-02-23T02:00:58.356Z,45.79
2023-02-23T02:01:08.294Z,43.79
2023-02-23T02:01:18.600Z,45.33
2023-02-23T02:01:28.327Z,44.03
2023-02-23T02:01:38.352Z,42.57
2023-02-23T02:01:48.457Z,42.58
2023-02-23T02:01:58.348Z,43.44
2023-02-23T02:02:08.302Z,43.69
2023-02-23T02:02:18.300Z,43.33
2023-02-23T02:02:28.317Z,44.89
2023-02-23T02:02:38.305Z,44.37
2023-02-23T02:02:48.299Z,43.72
2023-02-23T02:02:58.302Z,43.44
2023-02-23T02:03:08.323Z,43.15
2023-02-23T02:03:18.298Z,41.24
2023-02-23T02:03:28.315Z,39.64
2023-02-23T02:03:38.305Z,39.47
2023-02-23T02:03:48.310Z,39.30
2023-02-23T02:03:58.290Z,39.89
2023-02-23T02:04:08.315Z,38.93
2023-02-23T02:04:18.305Z,39.74
2023-02-23T02:04:28.316Z,41.23
2023-02-23T02:04:38.352Z,41.70
2023-02-23T02:04:48.328Z,42.20
2023-02-23T02:04:58.328Z,42.60
2023-02-23T02:05:08.357Z,40.73
2023-02-23T02:05:18.349Z,40.03
2023-02-23T02:05:28.303Z,40.55
2023-02-23T02:05:38.303Z,39.76
2023-02-23T02:05:48.291Z,42.04
2023-02-23T02:05:58.409Z,43.43
2023-02-23T02:06:08.299Z,41.18
2023-02-23T02:06:18.293Z,41.89
2023-02-23T02:06:28.279Z,43.04
2023-02-23T02:06:38.299Z,41.66
2023-02-23T02:06:48.273Z,39.74
2023-02-23T02:06:58.369Z,40.57
2023-02-23T02:07:08.299Z,38.71
2023-02-23T02:07:18.275Z,37.84
2023-02-23T02:07:28.301Z,37.65
2023-02-23T02:07:38.321Z,37.67
2023-02-23T02:07:48.321Z,38.30